Time;durP1;ratioP1;P1;durP2;ratioP2;P2;SDS_P1;SDS_P2;PMS_P1;PMS_P2;Temp;Humidity;BMP_temperature;BMP_pressure;BME280_temperature;BME280_humidity;BME280_pressure;Samples;Min_cycle;Max_cycle;Signal;HPM_P1;HPM_P2
2022/09/27 00:00:21;;;;;;;7.07;4.90;;;;;;;19.70;78.87;99511.16;5012632;28;20030;-62
2022/09/27 00:02:47;;;;;;;7.85;4.88;;;;;;;19.76;80.20;99504.06;5012604;28;20029;-63
2022/09/27 00:05:12;;;;;;;6.95;5.20;;;;;;;19.55;80.52;99499.16;5012429;28;20053;-66
2022/09/27 00:07:40;;;;;;;8.32;5.15;;;;;;;19.55;80.82;99499.16;5012427;28;20415;-65
2022/09/27 00:10:07;;;;;;;5.28;4.78;;;;;;;19.44;80.93;99482.75;5011547;28;20030;-65
2022/09/27 00:12:33;;;;;;;7.35;4.70;;;;;;;19.34;81.44;99476.81;5012474;28;20037;-65
2022/09/27 00:15:00;;;;;;;6.10;4.80;;;;;;;19.45;81.32;99518.53;5012151;28;20038;-63
2022/09/27 00:17:45;;;;;;;6.90;5.07;;;;;;;19.52;80.92;99511.44;5008954;28;20030;-63
2022/09/27 00:20:10;;;;;;;7.40;5.25;;;;;;;19.55;81.47;99514.00;4990330;28;20041;-66
2022/09/27 00:22:36;;;;;;;6.63;4.40;;;;;;;19.54;81.14;99502.66;5009154;28;20034;-67
2022/09/27 00:25:04;;;;;;;5.68;4.97;;;;;;;19.29;81.47;99464.66;5009923;28;20065;-62
2022/09/27 00:27:30;;;;;;;5.93;5.15;;;;;;;19.44;81.90;99503.69;5008677;28;20053;-63
2022/09/27 00:29:55;;;;;;;6.22;4.97;;;;;;;19.39;82.21;99498.53;5007511;28;20037;-65
2022/09/27 00:32:21;;;;;;;7.05;4.75;;;;;;;19.44;82.12;99498.47;5007984;28;20056;-67
2022/09/27 00:34:46;;;;;;;5.93;4.80;;;;;;;19.48;81.84;99491.44;5007619;28;20037;-66
2022/09/27 00:37:12;;;;;;;7.35;4.95;;;;;;;19.43;81.56;99477.53;5006948;28;20586;-66
2022/09/27 00:39:41;;;;;;;5.07;4.57;;;;;;;19.48;81.53;99480.97;5004688;28;20133;-62
2022/09/27 00:42:11;;;;;;;8.40;5.47;;;;;;;19.32;81.20;99454.16;5007852;28;20456;-68
2022/09/27 00:44:39;;;;;;;6.15;4.53;;;;;;;19.50;81.01;99479.16;5006239;28;20408;-65
2022/09/27 00:47:25;;;;;;;7.55;4.63;;;;;;;19.54;80.46;99484.34;5004266;28;20054;-66
2022/09/27 00:49:53;;;;;;;7.65;4.80;;;;;;;19.58;80.52;99482.53;5006091;28;20049;-63
2022/09/27 00:52:26;;;;;;;6.32;4.60;;;;;;;19.35;80.09;99439.28;5003278;28;20022;-64
2022/09/27 00:55:01;;;;;;;5.75;4.20;;;;;;;19.60;79.95;99483.38;5010742;28;20029;-66
2022/09/27 00:57:27;;;;;;;5.50;4.35;;;;;;;19.60;79.67;99479.88;5009318;28;20037;-65
2022/09/27 01:00:05;;;;;;;7.97;4.28;;;;;;;19.42;78.97;99444.41;5002896;28;20117;-64
2022/09/27 01:02:32;;;;;;;7.13;4.40;;;;;;;19.63;79.15;99469.38;4994196;28;20060;-63
2022/09/27 01:04:58;;;;;;;6.18;4.35;;;;;;;19.38;79.13;99415.66;5010171;28;20400;-66
2022/09/27 01:07:24;;;;;;;7.68;4.30;;;;;;;19.46;78.91;99428.63;5010190;28;20026;-67
2022/09/27 01:09:49;;;;;;;5.88;4.30;;;;;;;19.63;78.54;99474.63;5009554;28;20072;-66
2022/09/27 01:12:27;;;;;;;4.97;4.05;;;;;;;19.60;78.25;99465.06;5007928;28;20033;-66
2022/09/27 01:15:30;;;;;;;7.78;4.22;;;;;;;19.53;79.65;99458.19;4997450;28;20465;-67
2022/09/27 01:18:11;;;;;;;6.15;4.60;;;;;;;19.45;79.94;99455.72;5010128;28;20121;-65
2022/09/27 01:21:04;;;;;;;6.65;4.40;;;;;;;19.40;80.33;99452.25;5009868;28;20022;-63
2022/09/27 01:24:04;;;;;;;5.43;4.10;;;;;;;19.28;80.83;99457.69;5005397;28;20025;-63
2022/09/27 01:26:57;;;;;;;6.07;4.60;;;;;;;19.35;80.33;99462.84;4986277;28;20540;-66
2022/09/27 01:29:52;;;;;;;7.15;4.75;;;;;;;19.41;80.30;99456.63;4987702;28;21373;-66
2022/09/27 01:32:49;;;;;;;7.05;4.28;;;;;;;19.44;80.84;99461.81;4988664;28;20026;-66
2022/09/27 01:35:40;;;;;;;5.65;4.20;;;;;;;19.48;81.04;99457.41;4988901;28;20069;-67
2022/09/27 01:38:16;;;;;;;5.95;4.50;;;;;;;19.53;80.64;99453.81;4975761;28;20046;-64
2022/09/27 01:41:01;;;;;;;8.75;4.18;;;;;;;19.58;80.56;99448.50;4980781;28;20587;-64
2022/09/27 01:43:36;;;;;;;4.85;3.90;;;;;;;19.62;79.28;99441.47;4983433;28;20125;-64
2022/09/27 01:46:16;;;;;;;5.35;4.30;;;;;;;19.74;79.28;99449.13;4968965;28;20046;-63
2022/09/27 01:48:49;;;;;;;6.05;4.10;;;;;;;19.72;78.39;99449.13;4969534;28;20094;-63
2022/09/27 01:51:41;;;;;;;4.60;4.10;;;;;;;19.75;78.33;99445.63;4968768;28;20069;-63
2022/09/27 01:54:09;;;;;;;7.35;3.90;;;;;;;19.68;76.83;99423.88;4912313;29;20032;-65
2022/09/27 01:56:45;;;;;;;7.70;4.15;;;;;;;19.76;76.84;99436.84;4911022;29;20048;-70
2022/09/27 01:59:13;;;;;;;4.97;3.85;;;;;;;19.73;76.03;99434.28;4912093;29;20047;-67
2022/09/27 02:01:42;;;;;;;7.57;4.10;;;;;;;19.75;75.93;99444.72;4912238;29;20075;-63
2022/09/27 02:04:11;;;;;;;;;;;;;;;19.70;75.95;99442.19;4946822;29;20494;-64
2022/09/27 02:06:44;;;;;;;6.60;4.50;;;;;;;19.55;76.75;99419.75;4950010;29;19910;-63
2022/09/27 02:09:22;;;;;;;9.35;4.50;;;;;;;19.63;76.69;99422.25;4950298;29;20387;-66
2022/09/27 02:11:54;;;;;;;7.88;4.22;;;;;;;19.57;77.01;99399.66;4950242;29;20098;-64
2022/09/27 02:14:48;;;;;;;6.22;3.80;;;;;;;19.67;77.10;99413.44;4950409;29;20490;-68
2022/09/27 02:17:29;;;;;;;8.07;4.20;;;;;;;19.70;77.67;99427.34;4950149;29;20042;-64
2022/09/27 02:20:16;;;;;;;5.90;4.10;;;;;;;19.51;77.89;99395.38;4950433;29;20075;-63
2022/09/27 02:22:49;;;;;;;5.45;4.40;;;;;;;19.76;78.07;99425.50;4950283;29;20509;-70
2022/09/27 02:25:33;;;;;;;7.93;5.00;;;;;;;19.78;78.45;99411.50;4950115;28;20039;-64
2022/09/27 02:28:15;;;;;;;6.47;4.07;;;;;;;19.76;78.95;99405.41;4950115;29;20035;-64
2022/09/27 02:30:42;;;;;;;6.90;4.22;;;;;;;19.72;79.51;99395.91;4969729;28;20038;-64
2022/09/27 02:33:07;;;;;;;10.10;4.57;;;;;;;19.80;79.61;99399.25;5009219;28;20030;-65
2022/09/27 02:35:34;;;;;;;8.20;4.50;;;;;;;19.84;80.14;99400.94;5009837;28;20420;-67
2022/09/27 02:38:02;;;;;;;8.32;5.00;;;;;;;19.67;80.40;99371.56;5009274;28;20088;-67
2022/09/27 02:40:34;;;;;;;7.30;4.82;;;;;;;19.69;81.50;99386.34;5011147;28;20172;-65
2022/09/27 02:43:02;;;;;;;7.50;4.60;;;;;;;19.82;82.62;99407.94;5010493;28;20480;-63
2022/09/27 02:45:36;;;;;;;9.10;5.43;;;;;;;19.73;83.41;99403.72;5010832;28;20030;-68
2022/09/27 02:48:14;;;;;;;7.85;5.32;;;;;;;19.82;83.90;99422.78;5010893;28;20061;-64
2022/09/27 02:50:52;;;;;;;6.25;5.18;;;;;;;19.81;84.17;99427.19;5010217;28;20026;-67
2022/09/27 02:53:26;;;;;;;7.50;5.43;;;;;;;19.82;84.88;99421.03;5010780;28;20034;-64
2022/09/27 02:56:00;;;;;;;7.57;5.22;;;;;;;19.80;85.14;99399.25;5010756;28;20041;-66
2022/09/27 02:59:03;;;;;;;6.90;5.20;;;;;;;19.82;85.12;99402.69;5010620;28;20405;-65
2022/09/27 03:02:09;;;;;;;7.07;5.57;;;;;;;19.78;85.25;99398.41;5010563;28;20037;-63
2022/09/27 03:04:41;;;;;;;5.68;5.00;;;;;;;19.73;85.77;99392.41;5014555;28;20026;-64
2022/09/27 03:07:07;;;;;;;6.70;5.00;;;;;;;19.54;85.95;99363.06;5014223;28;20022;-64
2022/09/27 03:09:43;;;;;;;7.00;4.95;;;;;;;19.68;85.75;99395.09;5014370;28;20026;-63
2022/09/27 03:12:09;;;;;;;8.45;5.70;;;;;;;19.63;85.89;99394.31;5014361;28;20128;-64
2022/09/27 03:14:34;;;;;;;8.90;5.38;;;;;;;19.48;85.80;99366.63;5014139;28;20033;-67
2022/09/27 03:17:00;;;;;;;10.02;5.43;;;;;;;19.72;85.81;99407.22;5014215;28;20030;-66
2022/09/27 03:19:25;;;;;;;6.82;5.10;;;;;;;19.72;85.41;99401.13;5014085;28;20065;-64
2022/09/27 03:21:51;;;;;;;6.15;5.00;;;;;;;19.76;85.10;99399.31;5014233;28;20026;-67
2022/09/27 03:24:16;;;;;;;9.38;5.72;;;;;;;19.47;85.37;99346.59;5014172;28;20030;-66
2022/09/27 03:26:42;;;;;;;9.93;5.68;;;;;;;19.70;85.55;99376.72;5014111;28;20029;-68
2022/09/27 03:29:07;;;;;;;7.00;5.72;;;;;;;19.69;85.69;99375.03;5014124;28;20030;-63
2022/09/27 03:31:33;;;;;;;7.30;5.82;;;;;;;19.63;86.11;99369.91;5014084;28;20385;-64
2022/09/27 03:33:58;;;;;;;7.13;5.70;;;;;;;19.29;86.13;99303.28;5013746;28;20409;-63
2022/09/27 03:36:23;;;;;;;6.63;5.68;;;;;;;19.55;86.58;99356.91;5013738;28;20017;-69
2022/09/27 03:38:49;;;;;;;12.27;5.60;;;;;;;19.55;86.44;99347.31;5013580;28;20104;-64
2022/09/27 03:41:14;;;;;;;7.70;5.68;;;;;;;19.58;86.25;99356.88;5013845;28;20117;-64
2022/09/27 03:43:40;;;;;;;9.68;5.82;;;;;;;19.58;86.24;99356.88;5013853;28;20497;-63
2022/09/27 03:46:05;;;;;;;10.07;5.93;;;;;;;19.52;86.78;99357.84;5013353;28;20038;-70
2022/09/27 03:48:31;;;;;;;6.78;5.95;;;;;;;19.59;86.41;99368.19;5013493;28;20061;-65
2022/09/27 03:50:56;;;;;;;7.20;5.57;;;;;;;19.65;85.98;99363.72;5013479;28;20037;-68
2022/09/27 03:53:22;;;;;;;7.53;5.57;;;;;;;19.58;86.22;99354.25;5014024;28;20061;-65
2022/09/27 03:55:47;;;;;;;8.43;5.43;;;;;;;19.64;85.64;99359.38;5011188;28;20071;-71
2022/09/27 03:58:13;;;;;;;5.90;4.97;;;;;;;19.44;85.45;99323.09;5013585;28;20038;-64
2022/09/27 04:00:40;;;;;;;7.68;5.00;;;;;;;19.63;84.85;99359.41;5013772;28;20084;-65
2022/09/27 04:03:05;;;;;;;6.22;5.25;;;;;;;19.62;85.18;99363.78;5013486;28;20484;-63
2022/09/27 04:05:31;;;;;;;9.07;5.15;;;;;;;19.65;84.45;99373.31;5013290;28;20033;-63
2022/09/27 04:08:00;;;;;;;9.57;5.28;;;;;;;19.69;84.72;99375.03;5011005;28;20062;-64
2022/09/27 04:10:25;;;;;;;9.07;5.10;;;;;;;19.69;84.31;99370.63;5013263;28;20500;-66
2022/09/27 04:12:51;;;;;;;8.13;5.55;;;;;;;19.73;84.16;99368.81;5013318;28;20029;-65
2022/09/27 04:15:17;;;;;;;8.48;5.40;;;;;;;19.66;84.63;99372.44;5012812;28;20057;-64
2022/09/27 04:17:43;;;;;;;8.32;4.97;;;;;;;19.69;84.44;99380.25;5012838;28;20432;-69
2022/09/27 04:20:10;;;;;;;8.10;5.50;;;;;;;19.68;84.52;99368.06;5013150;28;20511;-66
2022/09/27 04:22:42;;;;;;;6.40;5.00;;;;;;;19.70;84.45;99379.34;5013137;28;20056;-64
2022/09/27 04:25:11;;;;;;;7.88;5.00;;;;;;;19.72;84.35;99369.72;5013176;28;20065;-68
2022/09/27 04:27:37;;;;;;;7.05;5.10;;;;;;;19.69;84.70;99370.63;5011751;28;20030;-65
2022/09/27 04:30:03;;;;;;;6.25;5.22;;;;;;;19.59;85.21;99347.25;5013046;28;20030;-64
2022/09/27 04:32:29;;;;;;;6.22;4.97;;;;;;;19.45;85.38;99329.19;5012507;28;20049;-64
2022/09/27 04:37:38;;;;;;;8.90;5.55;;;;;;;19.68;85.39;99347.09;5012887;28;20044;-64
2022/09/27 04:40:04;;;;;;;8.13;4.90;;;;;;;19.68;85.33;99329.63;5012636;28;20113;-63
2022/09/27 04:42:29;;;;;;;6.47;5.43;;;;;;;19.63;85.27;99334.09;5012590;28;20030;-63
2022/09/27 04:44:55;;;;;;;9.30;5.03;;;;;;;19.71;85.31;99339.19;5012740;28;20477;-62
2022/09/27 04:47:20;;;;;;;7.57;4.93;;;;;;;19.75;85.26;99333.00;5012472;28;20472;-63
2022/09/27 04:49:47;;;;;;;7.43;5.05;;;;;;;19.80;85.22;99332.91;5012278;28;20401;-66
2022/09/27 04:52:14;;;;;;;6.70;5.00;;;;;;;19.85;85.07;99350.28;5012333;28;20492;-65
2022/09/27 04:54:40;;;;;;;8.73;5.43;;;;;;;19.88;85.12;99339.75;5012024;28;20611;-67
2022/09/27 04:57:06;;;;;;;11.23;5.13;;;;;;;19.87;84.92;99335.41;5012513;28;20038;-70
2022/09/27 04:59:31;;;;;;;9.98;5.35;;;;;;;19.96;84.78;99341.34;5012279;28;20022;-66
2022/09/27 05:02:00;;;;;;;9.35;4.97;;;;;;;19.84;84.80;99326.75;5012256;28;20034;-63
2022/09/27 05:04:26;;;;;;;7.40;4.53;;;;;;;19.90;85.11;99342.38;5012421;28;20030;-65
2022/09/27 05:06:52;;;;;;;7.95;5.18;;;;;;;19.88;85.31;99338.91;5012184;28;20061;-68
2022/09/27 05:09:17;;;;;;;10.10;5.03;;;;;;;19.93;84.75;99344.06;5012201;28;20193;-66
2022/09/27 05:11:42;;;;;;;9.02;4.93;;;;;;;19.90;85.13;99341.47;5012357;28;20025;-66
2022/09/27 05:14:08;;;;;;;11.25;5.28;;;;;;;19.76;84.81;99312.91;5011505;28;20033;-67
2022/09/27 05:16:35;;;;;;;8.27;5.30;;;;;;;19.92;84.93;99342.31;5011631;28;20030;-64
2022/09/27 05:19:01;;;;;;;8.40;5.45;;;;;;;19.94;84.93;99336.16;5011813;28;20023;-65
2022/09/27 05:21:27;;;;;;;7.32;4.93;;;;;;;19.81;84.51;99305.81;5011519;28;20103;-70
2022/09/27 05:23:53;;;;;;;9.32;5.03;;;;;;;19.99;84.52;99336.94;5042260;28;20500;-68
2022/09/27 05:26:18;;;;;;;8.27;5.38;;;;;;;20.03;84.80;99330.72;5010624;28;20021;-68
2022/09/27 05:28:46;;;;;;;11.25;5.50;;;;;;;20.11;84.13;99338.44;5011340;28;20030;-66
2022/09/27 05:31:13;;;;;;;5.93;4.45;;;;;;;20.06;84.19;99328.94;5010917;28;20741;-66
2022/09/27 05:33:39;;;;;;;6.78;4.60;;;;;;;20.11;83.89;99332.31;5011297;28;20412;-66
2022/09/27 05:36:04;;;;;;;9.88;4.65;;;;;;;20.14;83.95;99332.28;5011535;28;20384;-69
2022/09/27 05:38:30;;;;;;;6.82;5.10;;;;;;;20.15;84.11;99334.88;5011112;28;20026;-65
2022/09/27 05:40:55;;;;;;;7.82;5.85;;;;;;;20.11;83.99;99325.34;5011327;28;20096;-65
2022/09/27 05:43:21;;;;;;;10.10;5.63;;;;;;;20.04;84.02;99318.50;5010613;28;20432;-64
2022/09/27 05:45:46;;;;;;;11.00;5.25;;;;;;;20.22;83.89;99335.59;5011323;28;20072;-67
2022/09/27 05:48:13;;;;;;;12.10;5.75;;;;;;;20.22;84.17;99332.13;5011030;28;20050;-67
2022/09/27 05:50:39;;;;;;;7.70;5.50;;;;;;;20.19;84.21;99333.03;4992593;28;20042;-64
2022/09/27 05:53:05;;;;;;;7.90;5.43;;;;;;;20.21;84.59;99328.63;5010979;28;20108;-65
2022/09/27 05:55:31;;;;;;;9.25;4.57;;;;;;;20.29;84.10;99334.56;5010520;28;20030;-65
2022/09/27 05:58:03;;;;;;;6.20;4.60;;;;;;;20.34;83.87;99331.84;5010240;28;20025;-67
2022/09/27 06:00:31;;;;;;;8.98;5.03;;;;;;;20.10;84.84;99299.16;5008535;28;20609;-64
2022/09/27 06:03:02;;;;;;;10.73;5.00;;;;;;;20.42;84.29;99329.91;5010861;28;20488;-65
2022/09/27 06:05:30;;;;;;;11.75;4.82;;;;;;;20.57;84.10;99322.63;5011199;28;20026;-64
2022/09/27 06:08:01;;;;;;;11.35;5.10;;;;;;;20.74;83.48;99310.00;5010984;28;20022;-63
2022/09/27 06:10:27;;;;;;;8.63;5.35;;;;;;;20.82;82.88;99302.84;5009810;28;20037;-67
2022/09/27 06:13:00;;;;;;;9.77;5.15;;;;;;;20.87;82.31;99294.84;5009722;28;20029;-67
2022/09/27 06:15:25;;;;;;;7.22;4.03;;;;;;;20.96;81.65;99299.88;5009600;28;20032;-67
2022/09/27 06:17:51;;;;;;;12.45;5.22;;;;;;;21.11;81.21;99313.50;5009599;28;20030;-66
2022/09/27 06:20:17;;;;;;;9.98;5.40;;;;;;;21.09;80.79;99291.69;5014972;28;20120;-68
2022/09/27 06:22:45;;;;;;;7.47;4.43;;;;;;;21.32;80.41;99310.34;5006591;28;20034;-65
2022/09/27 06:25:11;;;;;;;8.20;4.32;;;;;;;21.26;80.60;99271.13;5009558;28;20026;-65
2022/09/27 06:27:36;;;;;;;8.18;4.45;;;;;;;21.45;79.19;99268.84;5008495;28;20030;-64
2022/09/27 06:30:04;;;;;;;6.57;3.83;;;;;;;21.74;78.14;99311.88;5012042;28;20064;-68
2022/09/27 06:32:29;;;;;;;9.23;3.90;;;;;;;21.71;78.98;99314.59;5009801;28;20026;-68
2022/09/27 06:34:55;;;;;;;7.60;4.15;;;;;;;21.75;78.36;99310.13;5009163;28;20057;-66
2022/09/27 06:37:25;;;;;;;12.23;4.72;;;;;;;21.58;78.90;99287.81;5010194;28;20054;-67
2022/09/27 06:39:51;;;;;;;9.63;4.20;;;;;;;21.66;78.83;99306.00;5005241;28;20026;-65
2022/09/27 06:42:18;;;;;;;9.60;3.95;;;;;;;21.74;79.22;99317.13;5009409;28;20037;-67
2022/09/27 06:44:43;;;;;;;6.93;4.10;;;;;;;21.72;79.43;99305.81;5008901;28;20017;-64
2022/09/27 06:47:09;;;;;;;7.38;4.32;;;;;;;21.75;79.52;99303.09;5009725;28;20117;-67
2022/09/27 06:49:35;;;;;;;7.68;3.90;;;;;;;21.78;79.08;99308.28;5009303;28;20022;-68
2022/09/27 06:52:00;;;;;;;11.95;4.50;;;;;;;21.72;79.74;99312.81;5008508;28;20500;-68
2022/09/27 06:54:26;;;;;;;7.20;4.20;;;;;;;21.72;79.62;99316.31;5009558;28;20037;-68
2022/09/27 06:56:51;;;;;;;10.85;4.32;;;;;;;21.59;80.19;99301.81;4998086;28;20030;-64
2022/09/27 07:02:01;;;;;;;8.70;4.20;;;;;;;21.77;80.59;99319.69;4990593;28;20069;-67
2022/09/27 07:04:26;;;;;;;7.78;3.58;;;;;;;21.69;80.94;99319.03;4988042;28;20054;-69
2022/09/27 07:06:52;;;;;;;6.47;4.60;;;;;;;21.69;81.61;99319.03;4987338;28;20045;-68
2022/09/27 07:09:19;;;;;;;11.95;4.03;;;;;;;21.76;81.59;99314.47;4988917;28;20023;-68
2022/09/27 07:11:45;;;;;;;8.35;4.47;;;;;;;21.80;81.19;99319.59;4989652;28;20091;-68
2022/09/27 07:14:11;;;;;;;11.85;4.03;;;;;;;21.77;81.21;99314.44;4990916;28;20023;-68
2022/09/27 07:16:37;;;;;;;13.15;4.78;;;;;;;21.86;81.37;99325.56;5021862;28;20030;-68
2022/09/27 07:19:04;;;;;;;8.35;4.28;;;;;;;21.93;81.18;99312.25;5000798;28;20056;-67
2022/09/27 07:21:31;;;;;;;6.75;4.00;;;;;;;22.02;81.00;99313.75;4994211;28;20534;-69
2022/09/27 07:23:56;;;;;;;9.65;4.47;;;;;;;22.06;81.39;99311.88;5005747;28;20026;-68
2022/09/27 07:26:22;;;;;;;7.85;4.45;;;;;;;22.11;80.77;99308.19;4999049;28;20037;-69
2022/09/27 07:28:48;;;;;;;9.77;4.25;;;;;;;22.06;81.00;99318.00;5000025;28;20030;-68
2022/09/27 07:31:13;;;;;;;8.93;4.00;;;;;;;22.06;80.79;99304.00;4995697;28;20034;-67
2022/09/27 07:33:39;;;;;;;8.05;4.28;;;;;;;22.12;80.99;99302.03;5000318;28;20030;-68
2022/09/27 07:36:09;;;;;;;8.23;4.80;;;;;;;22.15;80.32;99303.72;5024365;28;20057;-68
2022/09/27 07:38:35;;;;;;;8.77;4.40;;;;;;;22.13;80.29;99305.53;5009434;28;20033;-70
2022/09/27 07:41:13;;;;;;;7.28;3.85;;;;;;;21.96;79.60;99283.22;4990198;28;20456;-66
2022/09/27 07:43:43;;;;;;;7.15;4.22;;;;;;;22.18;79.72;99302.78;5000824;28;20022;-70
2022/09/27 07:46:09;;;;;;;8.18;3.95;;;;;;;22.19;79.75;99309.75;5009359;28;20030;-67
2022/09/27 07:48:35;;;;;;;7.13;4.18;;;;;;;22.17;79.20;99301.03;5010708;28;20100;-71
2022/09/27 07:51:01;;;;;;;11.52;4.22;;;;;;;21.95;80.30;99275.41;5012786;28;20500;-68
2022/09/27 07:53:27;;;;;;;9.07;4.18;;;;;;;22.10;79.99;99282.81;5012655;28;20489;-67
2022/09/27 07:55:53;;;;;;;14.75;4.65;;;;;;;22.23;79.74;99298.22;5012744;28;20014;-65
2022/09/27 07:58:19;;;;;;;8.55;4.18;;;;;;;22.21;80.36;99292.19;5012364;28;20030;-67
2022/09/27 08:00:45;;;;;;;8.45;3.92;;;;;;;22.40;80.22;99297.75;5012355;28;20098;-66
2022/09/27 08:03:16;;;;;;;8.20;4.22;;;;;;;22.42;79.63;99282.81;5012570;28;20042;-69
2022/09/27 08:05:46;;;;;;;6.68;3.72;;;;;;;22.54;79.95;99289.44;5012198;28;20030;-66
2022/09/27 08:08:13;;;;;;;8.88;4.18;;;;;;;22.46;78.92;99244.97;5011844;28;20496;-66
2022/09/27 08:10:43;;;;;;;8.07;3.90;;;;;;;22.72;78.44;99277.50;5012357;28;20116;-68
2022/09/27 08:13:09;;;;;;;9.90;3.75;;;;;;;22.70;78.56;99276.66;5011887;28;20034;-66
2022/09/27 08:15:37;;;;;;;10.73;4.78;;;;;;;22.66;78.76;99275.06;5012807;28;20026;-66
2022/09/27 08:18:04;;;;;;;11.13;5.50;;;;;;;22.79;78.43;99279.00;5012818;28;20029;-67
2022/09/27 08:20:30;;;;;;;10.02;4.57;;;;;;;22.84;78.04;99277.09;5012757;28;20036;-67
2022/09/27 08:22:55;;;;;;;12.27;3.95;;;;;;;22.80;77.90;99256.19;5013024;28;20459;-66
2022/09/27 08:25:23;;;;;;;8.35;4.63;;;;;;;22.97;77.30;99272.28;5013216;28;20080;-68
2022/09/27 08:27:59;;;;;;;8.77;3.80;;;;;;;23.05;77.16;99283.41;5012961;28;20396;-67
2022/09/27 08:30:25;;;;;;;7.32;3.97;;;;;;;23.17;76.62;99287.44;5012966;28;20030;-71
2022/09/27 08:32:56;;;;;;;9.07;4.18;;;;;;;23.17;75.87;99260.25;5013002;28;20485;-67
2022/09/27 08:35:24;;;;;;;12.60;4.47;;;;;;;23.55;74.77;99297.53;5013011;28;20022;-67
2022/09/27 08:37:58;;;;;;;9.00;3.78;;;;;;;23.82;72.93;99281.66;5012791;28;20034;-67
2022/09/27 08:40:39;;;;;;;9.48;4.20;;;;;;;23.68;72.49;99259.31;5012513;28;20026;-68
2022/09/27 08:43:15;;;;;;;10.30;4.35;;;;;;;24.08;72.73;99283.34;5013166;28;20037;-67
2022/09/27 08:46:21;;;;;;;15.60;4.07;;;;;;;24.22;71.41;99282.81;5012638;28;20169;-67
2022/09/27 08:48:52;;;;;;;7.18;3.90;;;;;;;24.22;70.23;99267.88;4990372;28;20054;-67
2022/09/27 08:51:29;;;;;;;10.52;4.28;;;;;;;24.26;70.54;99268.59;4990480;28;20101;-67
2022/09/27 08:54:29;;;;;;;15.23;4.03;;;;;;;24.21;69.03;99263.50;4990611;28;20098;-67
2022/09/27 08:57:03;;;;;;;11.48;3.70;;;;;;;24.28;68.92;99244.81;4913566;29;20067;-67
2022/09/27 08:59:38;;;;;;;11.30;4.03;;;;;;;24.40;67.75;99249.59;4913080;29;20170;-67
2022/09/27 09:02:10;;;;;;;8.73;3.75;;;;;;;24.33;66.45;99214.69;4913463;29;20044;-66
2022/09/27 09:04:40;;;;;;;20.33;3.60;;;;;;;24.53;61.28;99229.69;4913660;29;20050;-67
2022/09/27 09:07:40;;;;;;;;;;;;;;;24.60;60.70;99232.97;4913691;29;20055;-67
2022/09/27 09:13:32;;;;;;;9.93;3.40;;;;;;;24.63;61.00;99216.16;4820484;29;20511;-70
2022/09/27 09:16:04;;;;;;;9.23;3.17;;;;;;;24.75;60.46;99225.34;4820411;29;20058;-68
2022/09/27 09:18:45;;;;;;;9.05;3.03;;;;;;;24.87;60.02;99215.16;4820349;29;20050;-66
2022/09/27 09:21:46;;;;;;;14.30;3.30;;;;;;;25.19;58.52;99209.41;4820456;29;20049;-67
2022/09/27 09:24:23;;;;;;;13.43;3.60;;;;;;;25.53;57.72;99210.56;4767796;30;20071;-67
2022/09/27 09:27:09;;;;;;;7.68;3.08;;;;;;;25.88;57.52;99216.03;4784243;30;20046;-69
2022/09/27 09:29:38;;;;;;;9.30;3.00;;;;;;;25.94;55.03;99213.09;4784120;30;20044;-68
2022/09/27 09:32:35;;;;;;;10.27;2.15;;;;;;;25.87;55.19;99211.69;4789679;29;20526;-68
2022/09/27 09:35:14;;;;;;;14.82;3.50;;;;;;;25.64;55.65;99181.88;4820087;29;20098;-67
2022/09/27 09:37:48;;;;;;;10.25;3.15;;;;;;;25.58;55.67;99205.94;4820000;29;20133;-68
2022/09/27 09:40:26;;;;;;;11.82;2.90;;;;;;;25.39;55.48;99165.44;4820186;29;20606;-66
2022/09/27 09:43:07;;;;;;;12.02;3.10;;;;;;;25.57;56.11;99188.38;4820086;29;20141;-67
2022/09/27 09:45:40;;;;;;;6.63;2.58;;;;;;;25.59;55.92;99173.28;4856637;29;20493;-67
2022/09/27 09:48:05;;;;;;;7.00;2.47;;;;;;;25.57;56.57;99172.53;4840926;29;20152;-67
2022/09/27 09:50:43;;;;;;;12.50;2.80;;;;;;;25.67;55.66;99163.25;4901952;29;20123;-67
2022/09/27 09:53:26;;;;;;;9.18;2.92;;;;;;;25.95;55.20;99166.38;4915561;29;20067;-67
2022/09/27 09:56:01;;;;;;;10.57;3.72;;;;;;;26.16;55.13;99160.06;4931543;29;20039;-67
2022/09/27 09:58:42;;;;;;;8.70;3.05;;;;;;;26.38;52.95;99147.56;4931321;29;20077;-67
2022/09/27 10:01:17;;;;;;;13.23;4.43;;;;;;;26.63;51.24;99171.00;4962867;28;20464;-67
2022/09/27 10:03:43;;;;;;;17.58;3.80;;;;;;;26.86;51.54;99175.19;4980505;28;20084;-67
2022/09/27 10:06:10;;;;;;;8.10;2.20;;;;;;;26.66;50.69;99115.28;4987809;28;20069;-67
2022/09/27 10:08:36;;;;;;;11.35;2.75;;;;;;;26.79;51.67;99163.19;4988956;28;20525;-67
2022/09/27 10:11:02;;;;;;;13.18;2.42;;;;;;;26.93;49.98;99166.00;4995086;28;20072;-67
2022/09/27 10:13:32;;;;;;;13.75;2.72;;;;;;;26.84;49.56;99157.66;5012080;28;20034;-68
2022/09/27 10:16:06;;;;;;;24.52;3.53;;;;;;;26.84;49.74;99155.03;5011188;28;20065;-66
2022/09/27 10:18:34;;;;;;;9.52;2.85;;;;;;;26.79;49.66;99131.41;5010799;28;20809;-67
2022/09/27 10:21:03;;;;;;;6.43;2.17;;;;;;;26.64;51.16;99141.84;5009404;28;20531;-70
2022/09/27 10:23:28;;;;;;;9.70;2.50;;;;;;;26.54;51.66;99143.22;5008156;28;20068;-69
2022/09/27 10:26:01;;;;;;;5.07;1.98;;;;;;;26.51;51.43;99138.09;5010934;28;20085;-68
2022/09/27 10:28:36;;;;;;;7.50;2.30;;;;;;;26.67;52.32;99127.59;4991158;28;20036;-65
2022/09/27 10:31:35;;;;;;;6.22;2.20;;;;;;;26.85;51.89;99130.25;4991194;28;20030;-67
2022/09/27 10:34:06;;;;;;;12.63;2.75;;;;;;;27.04;50.13;99124.84;4949835;29;20076;-65
2022/09/27 10:36:34;;;;;;;5.63;2.20;;;;;;;27.15;49.67;99111.88;4949880;28;20099;-66
2022/09/27 10:39:03;;;;;;;7.47;2.58;;;;;;;27.31;49.31;99119.03;4949763;28;20046;-66
2022/09/27 10:41:37;;;;;;;7.35;2.30;;;;;;;27.32;48.84;99103.03;4951108;28;20039;-70
2022/09/27 10:44:15;;;;;;;8.05;2.33;;;;;;;27.43;49.77;99084.78;4969100;28;20074;-67
2022/09/27 10:46:43;;;;;;;5.90;2.08;;;;;;;27.28;47.96;99078.50;4968879;28;20082;-67
2022/09/27 10:49:16;;;;;;;10.82;2.45;;;;;;;27.66;48.56;99106.50;4969086;28;20039;-68
2022/09/27 10:51:42;;;;;;;8.18;2.60;;;;;;;27.68;49.02;99104.63;4968618;28;20038;-67
2022/09/27 10:54:33;;;;;;;9.40;2.67;;;;;;;27.68;49.14;99111.72;4968867;28;20113;-70
2022/09/27 10:57:03;;;;;;;6.22;2.22;;;;;;;27.62;49.65;99104.13;4968754;28;20624;-67
2022/09/27 10:59:33;;;;;;;8.52;2.30;;;;;;;27.59;49.60;99095.38;4968960;28;20031;-67
2022/09/27 11:01:59;;;;;;;7.18;2.42;;;;;;;27.62;50.43;99085.56;4969052;28;20109;-70
2022/09/27 11:04:36;;;;;;;6.28;2.70;;;;;;;27.64;50.24;99081.88;4968794;28;20624;-71
2022/09/27 11:07:13;;;;;;;6.80;2.42;;;;;;;27.77;49.40;99076.72;4968385;28;20164;-70
2022/09/27 11:09:51;;;;;;;5.40;2.70;;;;;;;27.91;49.29;99076.81;4972313;28;20125;-69
2022/09/27 11:12:19;;;;;;;5.88;2.25;;;;;;;28.13;48.68;99078.25;5007817;28;20033;-69
2022/09/27 11:15:11;;;;;;;5.13;2.38;;;;;;;28.22;48.83;99083.00;5010040;28;20022;-67
2022/09/27 11:18:08;;;;;;;8.32;2.63;;;;;;;27.70;48.54;99059.44;5006881;28;20084;-68
2022/09/27 11:20:48;;;;;;;8.85;2.13;;;;;;;27.76;49.10;99080.31;5009952;28;20025;-68
2022/09/27 11:23:38;;;;;;;7.82;2.58;;;;;;;27.59;49.80;99082.13;5007526;28;20408;-69
2022/09/27 11:26:03;;;;;;;9.23;2.53;;;;;;;27.32;49.83;99092.44;5012278;28;20484;-66
2022/09/27 11:28:41;;;;;;;4.88;2.10;;;;;;;27.08;50.25;99057.53;5013458;28;20044;-71
2022/09/27 11:31:28;;;;;;;4.28;2.35;;;;;;;27.32;50.73;99087.13;5013058;28;20037;-68
2022/09/27 11:34:23;;;;;;;5.30;2.30;;;;;;;27.35;50.60;99091.41;5012337;28;20463;-67
2022/09/27 11:37:06;;;;;;;7.35;2.20;;;;;;;27.10;51.01;99047.69;5013067;28;20536;-67
2022/09/27 11:39:32;;;;;;;6.07;2.42;;;;;;;27.17;50.96;99078.22;5010697;28;20041;-67
2022/09/27 11:42:15;;;;;;;6.10;2.15;;;;;;;27.08;50.71;99082.22;5013340;28;20034;-69
2022/09/27 11:44:56;;;;;;;6.03;1.80;;;;;;;26.94;51.32;99077.66;5012006;28;20041;-70
2022/09/27 11:47:44;;;;;;;5.85;2.13;;;;;;;26.82;52.78;99074.78;5013674;28;20076;-68
2022/09/27 11:50:52;;;;;;;6.25;2.15;;;;;;;26.94;52.30;99071.50;5013569;28;20125;-67
2022/09/27 11:53:51;;;;;;;7.80;2.20;;;;;;;26.72;51.84;99032.91;4991214;28;20066;-68
2022/09/27 11:56:40;;;;;;;7.25;2.67;;;;;;;26.99;51.86;99042.13;4991235;28;20026;-68
2022/09/27 11:59:26;;;;;;;4.47;1.88;;;;;;;27.26;50.77;99072.41;4985383;28;20038;-67
2022/09/27 12:02:25;;;;;;;6.07;2.45;;;;;;;27.27;51.24;99068.81;4971851;28;20034;-68